Metar z połowy godziny Komunikat METAR ze strony awiacja.imgw.pl Metar G00 EPMO METAR EPMO 261830Z 26014KT 9999 -SN FEW019 BKN035 01/M01 Q1007 =